sensor_id;sensor_type;location;lat;lon;timestamp;temperature;humidity
15578;DHT22;17667;45.598;5.214;2023-04-01T00:01:30;10.30;99.90
15578;DHT22;17667;45.598;5.214;2023-04-01T00:04:18;10.30;99.90
15578;DHT22;17667;45.598;5.214;2023-04-01T00:07:06;10.30;99.90
15578;DHT22;17667;45.598;5.214;2023-04-01T00:09:54;10.40;99.90
15578;DHT22;17667;45.598;5.214;2023-04-01T00:12:43;10.40;99.90
15578;DHT22;17667;45.598;5.214;2023-04-01T00:15:32;10.40;99.90
15578;DHT22;17667;45.598;5.214;2023-04-01T00:18:20;10.50;99.90
15578;DHT22;17667;45.598;5.214;2023-04-01T00:21:08;10.50;99.90
15578;DHT22;17667;45.598;5.214;2023-04-01T00:23:56;10.40;99.90
15578;DHT22;17667;45.598;5.214;2023-04-01T00:26:44;10.40;99.90
15578;DHT22;17667;45.598;5.214;2023-04-01T00:29:33;10.40;99.90
15578;DHT22;17667;45.598;5.214;2023-04-01T00:32:22;10.40;99.90
15578;DHT22;17667;45.598;5.214;2023-04-01T00:35:10;10.30;99.90
15578;DHT22;17667;45.598;5.214;2023-04-01T00:37:58;10.10;99.90
15578;DHT22;17667;45.598;5.214;2023-04-01T00:40:46;10.00;99.90
15578;DHT22;17667;45.598;5.214;2023-04-01T00:43:36;9.80;99.90
15578;DHT22;17667;45.598;5.214;2023-04-01T00:46:24;9.80;99.90
15578;DHT22;17667;45.598;5.214;2023-04-01T00:49:14;9.70;99.90
15578;DHT22;17667;45.598;5.214;2023-04-01T00:52:04;9.70;99.90
15578;DHT22;17667;45.598;5.214;2023-04-01T00:54:55;9.70;99.90
15578;DHT22;17667;45.598;5.214;2023-04-01T00:57:46;9.70;99.90
15578;DHT22;17667;45.598;5.214;2023-04-01T01:00:35;9.60;99.90
15578;DHT22;17667;45.598;5.214;2023-04-01T01:03:23;9.70;99.90
15578;DHT22;17667;45.598;5.214;2023-04-01T01:06:19;9.60;99.90
15578;DHT22;17667;45.598;5.214;2023-04-01T01:09:25;9.60;99.90
15578;DHT22;17667;45.598;5.214;2023-04-01T01:12:18;9.50;99.90
15578;DHT22;17667;45.598;5.214;2023-04-01T01:15:13;9.50;99.90
15578;DHT22;17667;45.598;5.214;2023-04-01T01:18:10;9.50;99.90
15578;DHT22;17667;45.598;5.214;2023-04-01T01:21:26;9.40;99.90
15578;DHT22;17667;45.598;5.214;2023-04-01T01:27:31;9.40;99.90
15578;DHT22;17667;45.598;5.214;2023-04-01T01:30:28;9.40;99.90
15578;DHT22;17667;45.598;5.214;2023-04-01T01:33:39;9.50;99.90
15578;DHT22;17667;45.598;5.214;2023-04-01T01:36:33;9.40;99.90
15578;DHT22;17667;45.598;5.214;2023-04-01T01:39:26;9.30;99.90
15578;DHT22;17667;45.598;5.214;2023-04-01T01:42:18;9.30;99.90
15578;DHT22;17667;45.598;5.214;2023-04-01T01:45:08;9.40;99.90
15578;DHT22;17667;45.598;5.214;2023-04-01T01:47:59;9.40;99.90
15578;DHT22;17667;45.598;5.214;2023-04-01T01:50:48;9.50;99.90
15578;DHT22;17667;45.598;5.214;2023-04-01T01:53:38;9.50;99.90
15578;DHT22;17667;45.598;5.214;2023-04-01T01:56:27;9.50;99.90
15578;DHT22;17667;45.598;5.214;2023-04-01T01:59:20;9.60;99.90
15578;DHT22;17667;45.598;5.214;2023-04-01T02:02:09;9.60;99.90
15578;DHT22;17667;45.598;5.214;2023-04-01T02:04:58;9.60;99.90
15578;DHT22;17667;45.598;5.214;2023-04-01T02:07:49;9.60;99.90
15578;DHT22;17667;45.598;5.214;2023-04-01T02:10:45;9.60;99.90
15578;DHT22;17667;45.598;5.214;2023-04-01T02:13:42;9.60;99.90
15578;DHT22;17667;45.598;5.214;2023-04-01T02:16:34;9.70;99.90
15578;DHT22;17667;45.598;5.214;2023-04-01T02:19:27;9.70;99.90
15578;DHT22;17667;45.598;5.214;2023-04-01T02:22:20;9.70;99.90
15578;DHT22;17667;45.598;5.214;2023-04-01T02:25:11;9.60;99.90
15578;DHT22;17667;45.598;5.214;2023-04-01T02:28:02;9.60;99.90
15578;DHT22;17667;45.598;5.214;2023-04-01T02:30:51;9.60;99.90
15578;DHT22;17667;45.598;5.214;2023-04-01T02:33:41;9.60;99.90
15578;DHT22;17667;45.598;5.214;2023-04-01T02:36:29;9.60;99.90
15578;DHT22;17667;45.598;5.214;2023-04-01T02:39:16;9.60;99.90
15578;DHT22;17667;45.598;5.214;2023-04-01T02:42:05;9.50;99.90
15578;DHT22;17667;45.598;5.214;2023-04-01T02:44:54;9.50;99.90
15578;DHT22;17667;45.598;5.214;2023-04-01T02:47:41;9.40;99.90
15578;DHT22;17667;45.598;5.214;2023-04-01T02:50:29;9.30;99.90
15578;DHT22;17667;45.598;5.214;2023-04-01T02:53:17;9.30;99.90
15578;DHT22;17667;45.598;5.214;2023-04-01T02:56:05;9.30;99.90
15578;DHT22;17667;45.598;5.214;2023-04-01T02:58:53;9.30;99.90
15578;DHT22;17667;45.598;5.214;2023-04-01T03:01:42;9.30;99.90
15578;DHT22;17667;45.598;5.214;2023-04-01T03:04:30;9.30;99.90
15578;DHT22;17667;45.598;5.214;2023-04-01T03:07:18;9.30;99.90
15578;DHT22;17667;45.598;5.214;2023-04-01T03:10:08;9.20;99.90
15578;DHT22;17667;45.598;5.214;2023-04-01T03:12:56;9.20;99.90
15578;DHT22;17667;45.598;5.214;2023-04-01T03:15:44;9.20;99.90
15578;DHT22;17667;45.598;5.214;2023-04-01T03:18:34;9.10;99.90
15578;DHT22;17667;45.598;5.214;2023-04-01T03:21:23;9.10;99.90
15578;DHT22;17667;45.598;5.214;2023-04-01T03:24:11;9.00;99.90
15578;DHT22;17667;45.598;5.214;2023-04-01T03:26:58;8.90;99.90
15578;DHT22;17667;45.598;5.214;2023-04-01T03:29:46;8.90;99.90
15578;DHT22;17667;45.598;5.214;2023-04-01T03:32:34;8.80;99.90
15578;DHT22;17667;45.598;5.214;2023-04-01T03:35:23;8.80;99.90
15578;DHT22;17667;45.598;5.214;2023-04-01T03:38:11;8.90;99.90
15578;DHT22;17667;45.598;5.214;2023-04-01T03:40:58;8.90;99.90
15578;DHT22;17667;45.598;5.214;2023-04-01T03:43:46;8.90;99.90
15578;DHT22;17667;45.598;5.214;2023-04-01T03:46:34;8.90;99.90
15578;DHT22;17667;45.598;5.214;2023-04-01T03:49:22;8.90;99.90
15578;DHT22;17667;45.598;5.214;2023-04-01T03:52:11;9.00;99.90
15578;DHT22;17667;45.598;5.214;2023-04-01T03:54:59;9.00;99.90
15578;DHT22;17667;45.598;5.214;2023-04-01T03:57:46;9.00;99.90
15578;DHT22;17667;45.598;5.214;2023-04-01T04:00:37;9.00;99.90
15578;DHT22;17667;45.598;5.214;2023-04-01T04:03:25;9.00;99.90
15578;DHT22;17667;45.598;5.214;2023-04-01T04:06:13;9.00;99.90
15578;DHT22;17667;45.598;5.214;2023-04-01T04:09:03;9.00;99.90
15578;DHT22;17667;45.598;5.214;2023-04-01T04:11:50;9.00;99.90
15578;DHT22;17667;45.598;5.214;2023-04-01T04:14:38;9.10;99.90
15578;DHT22;17667;45.598;5.214;2023-04-01T04:17:25;9.10;99.90
15578;DHT22;17667;45.598;5.214;2023-04-01T04:20:14;9.10;99.90
15578;DHT22;17667;45.598;5.214;2023-04-01T04:23:01;9.10;99.90
15578;DHT22;17667;45.598;5.214;2023-04-01T04:25:56;9.20;99.90
15578;DHT22;17667;45.598;5.214;2023-04-01T04:28:45;9.20;99.90
15578;DHT22;17667;45.598;5.214;2023-04-01T04:31:34;9.20;99.90
15578;DHT22;17667;45.598;5.214;2023-04-01T04:34:22;9.20;99.90
15578;DHT22;17667;45.598;5.214;2023-04-01T04:37:09;9.20;99.90
15578;DHT22;17667;45.598;5.214;2023-04-01T04:39:57;9.20;99.90
15578;DHT22;17667;45.598;5.214;2023-04-01T04:42:46;9.20;99.90
15578;DHT22;17667;45.598;5.214;2023-04-01T04:45:35;9.10;99.90
15578;DHT22;17667;45.598;5.214;2023-04-01T04:48:22;9.00;99.90
15578;DHT22;17667;45.598;5.214;2023-04-01T04:51:13;9.10;99.90
15578;DHT22;17667;45.598;5.214;2023-04-01T04:54:02;9.10;99.90
15578;DHT22;17667;45.598;5.214;2023-04-01T04:57:25;9.10;99.90
15578;DHT22;17667;45.598;5.214;2023-04-01T05:00:16;9.20;99.90
15578;DHT22;17667;45.598;5.214;2023-04-01T05:03:25;9.20;99.90
15578;DHT22;17667;45.598;5.214;2023-04-01T05:06:14;9.30;99.90
15578;DHT22;17667;45.598;5.214;2023-04-01T05:09:03;9.30;99.90
15578;DHT22;17667;45.598;5.214;2023-04-01T05:11:51;9.20;99.90
15578;DHT22;17667;45.598;5.214;2023-04-01T05:14:39;9.20;99.90
15578;DHT22;17667;45.598;5.214;2023-04-01T05:17:30;9.20;99.90
15578;DHT22;17667;45.598;5.214;2023-04-01T05:20:18;9.10;99.90
15578;DHT22;17667;45.598;5.214;2023-04-01T05:23:06;9.10;99.90
15578;DHT22;17667;45.598;5.214;2023-04-01T05:25:54;9.20;99.90
15578;DHT22;17667;45.598;5.214;2023-04-01T05:28:43;9.20;99.90
15578;DHT22;17667;45.598;5.214;2023-04-01T05:31:31;9.20;99.90
15578;DHT22;17667;45.598;5.214;2023-04-01T05:34:20;9.30;99.90
15578;DHT22;17667;45.598;5.214;2023-04-01T05:37:07;9.30;99.90
15578;DHT22;17667;45.598;5.214;2023-04-01T05:39:56;9.30;99.90
15578;DHT22;17667;45.598;5.214;2023-04-01T05:42:45;9.40;99.90
15578;DHT22;17667;45.598;5.214;2023-04-01T05:45:34;9.30;99.90
15578;DHT22;17667;45.598;5.214;2023-04-01T05:48:32;9.30;99.90
15578;DHT22;17667;45.598;5.214;2023-04-01T05:51:22;9.40;99.90
15578;DHT22;17667;45.598;5.214;2023-04-01T05:54:09;9.40;99.90
15578;DHT22;17667;45.598;5.214;2023-04-01T05:56:58;9.40;99.90
15578;DHT22;17667;45.598;5.214;2023-04-01T05:59:45;9.50;99.90
15578;DHT22;17667;45.598;5.214;2023-04-01T06:02:33;9.60;99.90
15578;DHT22;17667;45.598;5.214;2023-04-01T06:05:23;9.60;99.90
15578;DHT22;17667;45.598;5.214;2023-04-01T06:08:13;9.60;99.90
15578;DHT22;17667;45.598;5.214;2023-04-01T06:11:17;9.60;99.90
15578;DHT22;17667;45.598;5.214;2023-04-01T06:14:23;9.70;99.90
15578;DHT22;17667;45.598;5.214;2023-04-01T06:17:26;9.80;99.90
15578;DHT22;17667;45.598;5.214;2023-04-01T06:20:20;9.90;99.90
15578;DHT22;17667;45.598;5.214;2023-04-01T06:23:29;9.90;99.90
15578;DHT22;17667;45.598;5.214;2023-04-01T06:26:26;9.90;99.90
15578;DHT22;17667;45.598;5.214;2023-04-01T06:32:52;10.00;99.90
15578;DHT22;17667;45.598;5.214;2023-04-01T06:35:55;10.00;99.90
15578;DHT22;17667;45.598;5.214;2023-04-01T06:39:08;9.80;99.90
15578;DHT22;17667;45.598;5.214;2023-04-01T06:42:19;9.80;99.90
15578;DHT22;17667;45.598;5.214;2023-04-01T06:45:20;9.90;99.90
15578;DHT22;17667;45.598;5.214;2023-04-01T06:48:45;10.20;99.90
15578;DHT22;17667;45.598;5.214;2023-04-01T06:51:59;10.40;99.90
15578;DHT22;17667;45.598;5.214;2023-04-01T06:55:20;10.50;99.90
15578;DHT22;17667;45.598;5.214;2023-04-01T06:58:35;10.60;99.90
15578;DHT22;17667;45.598;5.214;2023-04-01T07:01:29;10.70;99.90
15578;DHT22;17667;45.598;5.214;2023-04-01T07:04:26;10.70;99.90
15578;DHT22;17667;45.598;5.214;2023-04-01T07:07:24;10.70;99.90
15578;DHT22;17667;45.598;5.214;2023-04-01T07:10:33;10.90;99.90
15578;DHT22;17667;45.598;5.214;2023-04-01T07:13:46;11.20;99.90
15578;DHT22;17667;45.598;5.214;2023-04-01T07:16:39;11.30;99.90
15578;DHT22;17667;45.598;5.214;2023-04-01T07:19:31;11.20;99.90
15578;DHT22;17667;45.598;5.214;2023-04-01T07:22:29;11.10;99.90
15578;DHT22;17667;45.598;5.214;2023-04-01T07:25:31;10.90;99.90
15578;DHT22;17667;45.598;5.214;2023-04-01T07:28:40;11.20;99.90
15578;DHT22;17667;45.598;5.214;2023-04-01T07:31:53;11.50;99.90
15578;DHT22;17667;45.598;5.214;2023-04-01T07:34:51;11.80;99.90
